Chem Antares — V7GU2 — position and weather

sailwx.info

Track history (hours):
 
Tides and Currents Weather Stations Pressure Air Temp Water Temp Dewpoint Dewpoint Depression Visibility Wind Speed Wind Dir Waves Ship Positions

Chem Antares

Last reported at 2019-Feb-03 04:47 UTC. Time now 2019-Feb-17 08:26 UTC.
Position N 25°43' W 079°52'.
Warning: this ship's position is 14 days out of date.

Length 144 m; draft 8.1 m.

Type: Tanker. MMSI: 538002174.

Date/timePositionNaut miles runAvg speedWind from/ knotsBaromVisibWave heightAir tempDewpointWater temp
2019-Feb-03 04:47N 25°43' W 079°52'3 8.2
2019-Feb-03 04:27N 25°41' W 079°54'4 7.7
2019-Feb-03 03:56N 25°40' W 079°58'2 4.2
2019-Feb-03 03:30N 25°41' W 079°60'3 5.5
2019-Feb-03 02:59N 25°44' W 080°01'3 5.9
2019-Feb-03 02:30N 25°47' W 080°01'3 6.2
2019-Feb-03 02:00N 25°50' W 080°02'3 6.2
2019-Feb-03 01:30N 25°53' W 080°02'3 6.2
2019-Feb-03 00:57N 25°56' W 080°03'3 6.3
2019-Feb-03 00:27N 25°59' W 080°04'3 6.8
2019-Feb-03 00:00N 26°02' W 080°04'3 6.3
2019-Feb-02 23:30N 26°05' W 080°04'3 6.0
2019-Feb-02 22:56N 26°09' W 080°04'3 6.0
2019-Feb-02 22:23N 26°12' W 080°04'24 5.3
2019-Feb-02 17:52N 26°36' W 080°00'2 5.2
2019-Feb-02 17:30N 26°38' W 079°60'16 1.6
2019-Feb-02 07:14N 26°54' W 079°58'1 3.1
2019-Feb-02 07:01N 26°54' W 079°58'2 3.2
2019-Feb-02 06:30N 26°56' W 079°59'2 3.1
2019-Feb-02 06:01N 26°58' W 079°59'2 3.4
2019-Feb-02 05:31N 26°59' W 079°60'  
Track history (hours):
 
Tides and Currents Weather Stations Pressure Air Temp Water Temp Dewpoint Dewpoint Depression Visibility Wind Speed Wind Dir Waves Ship Positions

Chem Antares

Last reported at 2019-Feb-03 04:47 UTC. Time now 2019-Feb-17 08:26 UTC.
Position N 25°43' W 079°52'.
Warning: this ship's position is 14 days out of date.

Length 144 m; draft 8.1 m.

Type: Tanker. MMSI: 538002174.

Date/timePositionNaut miles runAvg speedWind from/ knotsBaromVisibWave heightAir tempDewpointWater temp
2019-Feb-03 04:47N 25°43' W 079°52'3 8.2
2019-Feb-03 04:27N 25°41' W 079°54'4 7.7
2019-Feb-03 03:56N 25°40' W 079°58'2 4.2
2019-Feb-03 03:30N 25°41' W 079°60'3 5.5
2019-Feb-03 02:59N 25°44' W 080°01'3 5.9
2019-Feb-03 02:30N 25°47' W 080°01'3 6.2
2019-Feb-03 02:00N 25°50' W 080°02'3 6.2
2019-Feb-03 01:30N 25°53' W 080°02'3 6.2
2019-Feb-03 00:57N 25°56' W 080°03'3 6.3
2019-Feb-03 00:27N 25°59' W 080°04'3 6.8
2019-Feb-03 00:00N 26°02' W 080°04'3 6.3
2019-Feb-02 23:30N 26°05' W 080°04'3 6.0
2019-Feb-02 22:56N 26°09' W 080°04'3 6.0
2019-Feb-02 22:23N 26°12' W 080°04'24 5.3
2019-Feb-02 17:52N 26°36' W 080°00'2 5.2
2019-Feb-02 17:30N 26°38' W 079°60'16 1.6
2019-Feb-02 07:14N 26°54' W 079°58'1 3.1
2019-Feb-02 07:01N 26°54' W 079°58'2 3.2
2019-Feb-02 06:30N 26°56' W 079°59'2 3.1
2019-Feb-02 06:01N 26°58' W 079°59'2 3.4
2019-Feb-02 05:31N 26°59' W 079°60'  

Dump ship's entire track history